Main page
Satellite images Climate Cyclones Lightning AirportsFAQ Languages Contact Newsletter About
Weather : Europe Africa North America South America Asia Australia-Oceania Others

1226, Shenzhen, Shenzhen Bao'an International Airport

latitude: , longitude: China, elevation: 22-33N m


METAR: ZGSZ 270000Z 02003MPS 7000 NSC 29/26 Q1004 NOSIG